createdAt,value
2023-01-06T00:01:25.065Z,8.80
2023-01-06T00:03:54.422Z,8.80
2023-01-06T00:06:27.685Z,8.90
2023-01-06T00:08:58.218Z,8.90
2023-01-06T00:11:26.767Z,8.90
2023-01-06T00:13:56.350Z,8.90
2023-01-06T00:16:25.164Z,8.90
2023-01-06T00:18:56.132Z,8.90
2023-01-06T00:21:24.562Z,9.00
2023-01-06T00:23:52.504Z,9.00
2023-01-06T00:26:21.929Z,9.00
2023-01-06T00:28:53.057Z,8.70
2023-01-06T00:31:21.088Z,9.00
2023-01-06T00:33:49.197Z,9.00
2023-01-06T00:36:17.177Z,9.00
2023-01-06T00:38:45.103Z,9.00
2023-01-06T00:41:29.050Z,8.80
2023-01-06T00:43:59.176Z,9.10
2023-01-06T00:46:29.214Z,9.10
2023-01-06T00:49:06.593Z,9.10
2023-01-06T00:51:35.808Z,9.10
2023-01-06T00:54:03.984Z,9.10
2023-01-06T00:56:31.887Z,9.10
2023-01-06T00:59:03.293Z,9.10
2023-01-06T01:01:31.243Z,9.10
2023-01-06T01:03:59.243Z,9.00
2023-01-06T01:06:27.142Z,9.00
2023-01-06T01:08:55.668Z,9.00
2023-01-06T01:11:42.358Z,9.00
2023-01-06T01:14:12.773Z,9.00
2023-01-06T01:16:41.036Z,9.00
2023-01-06T01:19:09.508Z,9.00
2023-01-06T01:21:37.422Z,9.00
2023-01-06T01:24:06.001Z,9.00
2023-01-06T01:26:33.904Z,9.00
2023-01-06T01:29:01.999Z,9.00
2023-01-06T01:31:32.293Z,8.40
2023-01-06T01:34:00.924Z,9.00
2023-01-06T01:36:28.872Z,9.00
2023-01-06T01:38:57.302Z,9.00
2023-01-06T01:41:26.760Z,9.00
2023-01-06T01:43:56.282Z,9.00
2023-01-06T01:46:27.536Z,8.30
2023-01-06T01:49:01.008Z,10.00
2023-01-06T01:51:33.465Z,9.10
2023-01-06T01:54:05.012Z,9.10
2023-01-06T01:56:36.931Z,9.10
2023-01-06T01:59:10.130Z,9.10
2023-01-06T02:01:38.163Z,9.10
2023-01-06T02:04:07.781Z,9.10
2023-01-06T02:06:38.643Z,9.80
2023-01-06T02:09:12.247Z,9.10
2023-01-06T02:11:41.420Z,8.80
2023-01-06T02:14:12.659Z,9.10
2023-01-06T02:16:50.247Z,9.10
2023-01-06T02:19:40.754Z,9.20
2023-01-06T02:22:26.502Z,9.20
2023-01-06T02:25:20.089Z,9.40
2023-01-06T02:28:17.126Z,9.30
2023-01-06T02:31:17.844Z,8.60
2023-01-06T02:33:51.862Z,9.30
2023-01-06T02:36:28.854Z,9.30
2023-01-06T02:39:14.024Z,9.30
2023-01-06T02:41:44.725Z,9.00
2023-01-06T02:44:21.102Z,9.20
2023-01-06T02:47:08.903Z,10.30
2023-01-06T02:49:47.249Z,9.30
2023-01-06T02:52:22.236Z,9.50
2023-01-06T02:54:56.751Z,9.30
2023-01-06T02:57:31.089Z,9.30
2023-01-06T03:00:06.598Z,9.30
2023-01-06T03:02:37.232Z,9.30
2023-01-06T03:05:09.095Z,9.30
2023-01-06T03:07:39.568Z,9.30
2023-01-06T03:10:09.530Z,10.20
2023-01-06T03:12:42.647Z,9.40
2023-01-06T03:15:11.721Z,9.40
2023-01-06T03:17:39.656Z,9.40
2023-01-06T03:20:10.492Z,10.60
2023-01-06T03:22:39.767Z,9.40
2023-01-06T03:25:09.269Z,9.40
2023-01-06T03:27:37.332Z,9.50
2023-01-06T03:30:09.662Z,9.50
2023-01-06T03:32:48.713Z,9.50
2023-01-06T03:35:29.067Z,9.40
2023-01-06T03:38:02.203Z,9.40
2023-01-06T03:40:33.953Z,9.50
2023-01-06T03:43:16.044Z,9.50
2023-01-06T03:45:54.466Z,9.50
2023-01-06T03:48:31.892Z,9.50
2023-01-06T03:51:06.705Z,9.50
2023-01-06T03:53:40.884Z,9.50
2023-01-06T03:56:17.930Z,9.50
2023-01-06T03:58:49.557Z,11.00
2023-01-06T04:01:18.125Z,9.50
2023-01-06T04:03:47.225Z,9.50
2023-01-06T04:06:16.492Z,8.80
2023-01-06T04:08:44.561Z,8.80
2023-01-06T04:11:33.293Z,9.60
2023-01-06T04:14:00.389Z,9.50
2023-01-06T04:16:28.418Z,9.50
2023-01-06T04:18:56.512Z,9.50
2023-01-06T04:21:25.781Z,9.50
2023-01-06T04:23:53.695Z,8.80
2023-01-06T04:26:21.592Z,9.50
2023-01-06T04:28:49.485Z,8.80
2023-01-06T04:31:17.580Z,9.50
2023-01-06T04:33:45.517Z,9.50
2023-01-06T04:36:14.383Z,9.50
2023-01-06T04:38:43.646Z,10.90
2023-01-06T04:41:11.550Z,9.50
2023-01-06T04:43:39.661Z,9.50
2023-01-06T04:46:07.734Z,9.50
2023-01-06T04:48:35.675Z,9.50
2023-01-06T04:51:05.145Z,9.60
2023-01-06T04:53:34.675Z,9.60
2023-01-06T04:56:06.438Z,9.60
2023-01-06T04:58:34.887Z,9.60
2023-01-06T05:01:03.432Z,9.60
2023-01-06T05:03:31.876Z,9.60
2023-01-06T05:06:05.417Z,10.20
2023-01-06T05:08:33.652Z,9.60
2023-01-06T05:11:02.318Z,9.60
2023-01-06T05:13:33.114Z,9.60
2023-01-06T05:16:01.210Z,9.60
2023-01-06T05:18:29.129Z,9.00
2023-01-06T05:20:57.002Z,9.10
2023-01-06T05:23:24.886Z,9.50
2023-01-06T05:25:53.143Z,9.50
2023-01-06T05:28:21.461Z,9.50
2023-01-06T05:30:51.010Z,9.50
2023-01-06T05:33:18.872Z,9.50
2023-01-06T05:35:46.777Z,9.50
2023-01-06T05:38:14.617Z,9.50
2023-01-06T05:40:42.454Z,9.50
2023-01-06T05:43:10.331Z,9.50
2023-01-06T05:45:38.272Z,9.50
2023-01-06T05:48:08.171Z,9.50
2023-01-06T05:50:36.067Z,10.00
2023-01-06T05:53:03.973Z,9.50
2023-01-06T05:55:31.879Z,9.60
2023-01-06T05:57:59.816Z,9.50
2023-01-06T06:00:27.934Z,9.30
2023-01-06T06:02:56.540Z,9.50
2023-01-06T06:05:25.865Z,10.40
2023-01-06T06:07:54.542Z,9.30
2023-01-06T06:10:22.677Z,9.50
2023-01-06T06:12:51.906Z,9.60
2023-01-06T06:15:20.071Z,9.60
2023-01-06T06:17:47.942Z,9.60
2023-01-06T06:20:16.113Z,9.60
2023-01-06T06:22:45.344Z,9.60
2023-01-06T06:25:13.232Z,9.60
2023-01-06T06:27:41.191Z,11.50
2023-01-06T06:30:09.978Z,9.60
2023-01-06T06:32:37.883Z,9.60
2023-01-06T06:35:06.705Z,10.00
2023-01-06T06:37:34.598Z,9.70
2023-01-06T06:40:03.982Z,9.60
2023-01-06T06:42:31.866Z,9.70
2023-01-06T06:44:59.729Z,9.70
2023-01-06T06:47:27.604Z,9.70
2023-01-06T06:49:55.571Z,9.70
2023-01-06T06:52:23.421Z,9.70
2023-01-06T06:54:51.334Z,9.70
2023-01-06T06:57:20.579Z,10.70
2023-01-06T06:59:48.465Z,11.10
2023-01-06T07:02:16.660Z,10.10
2023-01-06T07:04:44.688Z,9.70
2023-01-06T07:07:12.637Z,11.00
2023-01-06T07:09:40.531Z,9.70
2023-01-06T07:12:08.819Z,9.80
2023-01-06T07:14:38.108Z,9.70
2023-01-06T07:17:06.017Z,9.70
2023-01-06T07:19:33.910Z,9.70
2023-01-06T07:22:01.831Z,9.70
2023-01-06T07:24:29.693Z,9.70
2023-01-06T07:26:57.582Z,9.70
2023-01-06T07:29:25.515Z,9.70
2023-01-06T07:31:54.742Z,10.00
2023-01-06T07:34:22.596Z,9.80
2023-01-06T07:36:50.549Z,9.80
2023-01-06T07:39:18.480Z,9.80
2023-01-06T07:41:46.426Z,9.80
2023-01-06T07:44:15.618Z,9.80
2023-01-06T07:46:44.648Z,9.70
2023-01-06T07:49:13.935Z,9.70
2023-01-06T07:51:41.839Z,11.20
2023-01-06T07:54:09.974Z,9.70
2023-01-06T07:56:37.949Z,9.70
2023-01-06T07:59:06.105Z,9.80
2023-01-06T08:01:34.229Z,9.80
2023-01-06T08:04:02.153Z,9.80
2023-01-06T08:06:31.461Z,9.80
2023-01-06T08:08:59.490Z,9.80
2023-01-06T08:11:27.420Z,9.80
2023-01-06T08:13:55.322Z,9.80
2023-01-06T08:16:23.319Z,9.60
2023-01-06T08:18:51.290Z,9.80
2023-01-06T08:21:19.194Z,9.80
2023-01-06T08:23:48.522Z,9.90
2023-01-06T08:26:18.685Z,9.90
2023-01-06T08:28:47.345Z,10.10
2023-01-06T08:31:17.536Z,9.90
2023-01-06T08:33:45.980Z,9.90
2023-01-06T08:36:16.090Z,10.00
2023-01-06T08:38:44.704Z,10.00
2023-01-06T08:41:14.159Z,10.00
2023-01-06T08:43:45.647Z,10.00
2023-01-06T08:46:16.264Z,10.00
2023-01-06T08:48:44.459Z,10.10
2023-01-06T08:51:14.703Z,10.10
2023-01-06T08:53:43.875Z,10.10
2023-01-06T08:56:18.036Z,10.10
2023-01-06T08:58:46.322Z,10.10
2023-01-06T09:01:20.272Z,10.10
2023-01-06T09:03:48.384Z,10.40
2023-01-06T09:06:17.001Z,10.10
2023-01-06T09:08:44.957Z,10.10
2023-01-06T09:11:13.448Z,10.60
2023-01-06T09:13:42.952Z,10.10
2023-01-06T09:16:12.421Z,10.20
2023-01-06T09:18:40.804Z,10.60
2023-01-06T09:21:08.805Z,10.10
2023-01-06T09:23:36.706Z,10.10
2023-01-06T09:26:04.716Z,10.00
2023-01-06T09:28:33.259Z,10.00
2023-01-06T09:31:02.792Z,10.00
2023-01-06T09:33:30.802Z,10.00
2023-01-06T09:35:58.764Z,10.00
2023-01-06T09:38:28.113Z,10.10
2023-01-06T09:41:09.202Z,9.90
2023-01-06T09:43:45.940Z,9.90
2023-01-06T09:46:18.318Z,9.90
2023-01-06T09:48:52.557Z,9.90
2023-01-06T09:51:24.234Z,9.90
2023-01-06T09:54:03.145Z,9.90
2023-01-06T09:56:31.670Z,9.90
2023-01-06T09:59:08.521Z,10.20
2023-01-06T10:01:45.883Z,9.80
2023-01-06T10:04:17.914Z,9.80
2023-01-06T10:06:55.429Z,9.80
2023-01-06T10:09:32.136Z,9.70
2023-01-06T10:12:14.520Z,9.70
2023-01-06T10:14:51.484Z,9.70
2023-01-06T10:17:49.605Z,9.70
2023-01-06T10:20:44.654Z,9.70
2023-01-06T10:23:26.739Z,9.70
2023-01-06T10:25:56.167Z,9.70
2023-01-06T10:28:30.371Z,9.70
2023-01-06T10:31:01.497Z,9.70
2023-01-06T10:33:33.564Z,9.70
2023-01-06T10:36:02.186Z,9.70
2023-01-06T10:38:36.463Z,9.70
2023-01-06T10:41:15.488Z,9.70
2023-01-06T10:43:43.367Z,9.60
2023-01-06T10:46:11.623Z,9.70
2023-01-06T10:48:41.278Z,9.70
2023-01-06T10:51:34.979Z,9.80
2023-01-06T10:54:06.558Z,9.90
2023-01-06T10:56:37.645Z,9.90
2023-01-06T10:59:09.363Z,9.90
2023-01-06T11:01:49.052Z,9.90
2023-01-06T11:04:18.835Z,9.90
2023-01-06T11:06:50.881Z,9.90
2023-01-06T11:09:30.519Z,10.00
2023-01-06T11:12:00.987Z,10.00
2023-01-06T11:14:31.988Z,10.10
2023-01-06T11:17:02.278Z,10.10
2023-01-06T11:19:37.986Z,10.10
2023-01-06T11:22:07.032Z,10.20
2023-01-06T11:24:49.331Z,11.70
2023-01-06T11:27:18.305Z,10.30
2023-01-06T11:29:46.372Z,10.40
2023-01-06T11:32:17.534Z,10.40
2023-01-06T11:34:54.552Z,10.40
2023-01-06T11:37:32.164Z,10.40
2023-01-06T11:40:10.329Z,10.40
2023-01-06T11:45:08.192Z,10.60
2023-01-06T11:47:36.330Z,10.70
2023-01-06T11:50:07.060Z,11.20
2023-01-06T11:52:36.549Z,11.00
2023-01-06T11:55:21.657Z,11.10
2023-01-06T11:57:56.990Z,11.10
2023-01-06T12:00:39.591Z,11.00
2023-01-06T12:03:15.854Z,11.20
2023-01-06T12:05:55.885Z,10.70
2023-01-06T12:08:26.618Z,10.70
2023-01-06T12:10:59.395Z,10.60
2023-01-06T12:13:28.248Z,10.20
2023-01-06T12:16:02.127Z,10.40
2023-01-06T12:18:34.121Z,10.40
2023-01-06T12:21:05.928Z,10.30
2023-01-06T12:23:36.716Z,10.30
2023-01-06T12:26:10.651Z,10.20
2023-01-06T12:28:41.915Z,10.20
2023-01-06T12:31:14.371Z,10.20
2023-01-06T12:33:48.800Z,10.20
2023-01-06T12:36:28.887Z,10.10
2023-01-06T12:38:58.385Z,10.10
2023-01-06T12:41:31.291Z,10.20
2023-01-06T12:44:06.360Z,9.90
2023-01-06T12:46:40.943Z,9.90
2023-01-06T12:49:20.920Z,9.80
2023-01-06T12:51:55.723Z,9.80
2023-01-06T12:54:29.540Z,9.70
2023-01-06T12:57:13.350Z,9.70
2023-01-06T12:59:57.019Z,9.60
2023-01-06T13:02:41.547Z,9.60
2023-01-06T13:05:50.569Z,9.60
2023-01-06T13:08:33.111Z,9.50
2023-01-06T13:11:14.509Z,9.50
2023-01-06T13:13:55.417Z,9.50
2023-01-06T13:16:31.074Z,9.50
2023-01-06T13:19:10.154Z,9.50
2023-01-06T13:21:40.414Z,9.50
2023-01-06T13:24:29.405Z,8.90
2023-01-06T13:27:25.137Z,9.50
2023-01-06T13:30:06.536Z,9.50
2023-01-06T13:32:52.924Z,9.50
2023-01-06T13:35:40.416Z,9.50
2023-01-06T13:38:33.195Z,11.10
2023-01-06T13:41:06.135Z,9.70
2023-01-06T13:43:36.199Z,9.50
2023-01-06T13:46:07.993Z,9.60
2023-01-06T13:48:39.399Z,9.70
2023-01-06T13:51:10.949Z,9.70
2023-01-06T13:53:40.686Z,9.70
2023-01-06T13:56:42.909Z,9.80
2023-01-06T13:59:24.954Z,9.90
2023-01-06T14:01:54.823Z,9.90
2023-01-06T14:04:45.814Z,9.90
2023-01-06T14:07:14.888Z,9.90
2023-01-06T14:09:49.769Z,9.90
2023-01-06T14:12:22.935Z,10.80
2023-01-06T14:15:02.589Z,9.90
2023-01-06T14:17:37.376Z,9.60
2023-01-06T14:20:06.271Z,9.90
2023-01-06T14:22:34.529Z,9.90
2023-01-06T14:25:05.541Z,9.80
2023-01-06T14:28:11.039Z,11.20
2023-01-06T14:30:40.550Z,9.80
2023-01-06T14:33:36.370Z,9.80
2023-01-06T14:36:07.954Z,9.80
2023-01-06T14:38:44.352Z,9.70
2023-01-06T14:41:21.889Z,9.70
2023-01-06T14:43:55.535Z,9.70
2023-01-06T14:46:28.830Z,10.10
2023-01-06T14:49:02.038Z,9.70
2023-01-06T14:51:32.920Z,9.10
2023-01-06T14:54:05.503Z,9.60
2023-01-06T14:56:34.455Z,9.50
2023-01-06T14:59:13.404Z,10.70
2023-01-06T15:01:44.832Z,9.50
2023-01-06T15:04:25.758Z,9.40
2023-01-06T15:06:58.651Z,9.30
2023-01-06T15:09:26.855Z,9.20
2023-01-06T15:11:56.005Z,8.50
2023-01-06T15:14:29.386Z,9.10
2023-01-06T15:17:02.118Z,9.00
2023-01-06T15:19:30.794Z,9.00
2023-01-06T15:21:59.760Z,9.00
2023-01-06T15:24:32.135Z,9.70
2023-01-06T15:27:06.131Z,9.50
2023-01-06T15:29:34.720Z,8.90
2023-01-06T15:32:05.402Z,8.30
2023-01-06T15:34:36.692Z,8.60
2023-01-06T15:37:07.894Z,8.70
2023-01-06T15:39:39.718Z,8.60
2023-01-06T15:42:10.683Z,10.00
2023-01-06T15:44:40.175Z,8.60
2023-01-06T15:47:29.375Z,8.60
2023-01-06T15:50:02.427Z,8.60
2023-01-06T15:52:33.666Z,8.60
2023-01-06T15:55:05.542Z,7.90
2023-01-06T15:57:37.962Z,8.60
2023-01-06T16:00:09.247Z,8.60
2023-01-06T16:02:38.744Z,8.50
2023-01-06T16:05:07.210Z,8.40
2023-01-06T16:07:40.203Z,8.40
2023-01-06T16:10:30.686Z,8.30
2023-01-06T16:13:29.547Z,8.20
2023-01-06T16:16:01.793Z,8.10
2023-01-06T16:18:33.672Z,9.00
2023-01-06T16:21:14.080Z,8.00
2023-01-06T16:23:42.244Z,7.90
2023-01-06T16:26:13.705Z,7.90
2023-01-06T16:28:48.920Z,7.80
2023-01-06T16:31:30.057Z,7.70
2023-01-06T16:34:16.832Z,7.10
2023-01-06T16:36:45.196Z,8.10
2023-01-06T16:39:13.069Z,7.50
2023-01-06T16:41:58.602Z,7.30
2023-01-06T16:44:26.569Z,7.40
2023-01-06T16:46:54.516Z,7.40
2023-01-06T16:49:24.883Z,7.30
2023-01-06T16:51:53.611Z,7.20
2023-01-06T16:54:21.791Z,7.10
2023-01-06T16:56:50.073Z,7.20
2023-01-06T16:59:20.148Z,7.00
2023-01-06T17:01:49.164Z,7.00
2023-01-06T17:04:17.315Z,6.90
2023-01-06T17:06:47.252Z,6.80
2023-01-06T17:09:20.225Z,7.20
2023-01-06T17:11:49.148Z,6.70
2023-01-06T17:14:19.636Z,6.70
2023-01-06T17:16:48.270Z,6.60
2023-01-06T17:19:20.450Z,6.70
2023-01-06T17:21:52.653Z,6.70
2023-01-06T17:24:23.301Z,6.70
2023-01-06T17:26:53.493Z,6.60
2023-01-06T17:29:22.264Z,6.60
2023-01-06T17:31:52.068Z,6.80
2023-01-06T17:34:22.259Z,8.50
2023-01-06T17:36:53.419Z,6.30
2023-01-06T17:39:24.132Z,6.20
2023-01-06T17:42:01.615Z,6.30
2023-01-06T17:44:36.711Z,6.20
2023-01-06T17:47:12.290Z,6.40
2023-01-06T17:49:40.282Z,6.20
2023-01-06T17:52:20.738Z,6.50
2023-01-06T17:55:11.669Z,6.20
2023-01-06T17:57:41.918Z,6.10
2023-01-06T18:00:23.113Z,6.10
2023-01-06T18:02:56.537Z,6.10
2023-01-06T18:06:07.599Z,6.10
2023-01-06T18:08:39.206Z,6.00
2023-01-06T18:11:27.308Z,6.00
2023-01-06T18:13:55.540Z,5.90
2023-01-06T18:16:35.178Z,6.20
2023-01-06T18:19:17.378Z,7.80
2023-01-06T18:21:46.331Z,5.80
2023-01-06T18:24:18.535Z,6.10
2023-01-06T18:26:49.991Z,6.40
2023-01-06T18:29:19.590Z,5.80
2023-01-06T18:31:49.699Z,6.10
2023-01-06T18:34:40.215Z,6.00
2023-01-06T18:37:08.361Z,5.80
2023-01-06T18:39:42.435Z,6.30
2023-01-06T18:42:20.819Z,5.80
2023-01-06T18:44:49.022Z,5.90
2023-01-06T18:47:18.680Z,5.90
2023-01-06T18:49:47.174Z,6.50
2023-01-06T18:52:34.479Z,7.00
2023-01-06T18:55:13.373Z,6.00
2023-01-06T18:57:45.676Z,5.90
2023-01-06T19:00:36.560Z,5.90
2023-01-06T19:03:34.192Z,5.90
2023-01-06T19:06:30.971Z,6.00
2023-01-06T19:08:58.963Z,6.30
2023-01-06T19:11:30.128Z,6.00
2023-01-06T19:14:01.382Z,6.30
2023-01-06T19:16:34.919Z,6.00
2023-01-06T19:19:19.396Z,6.00
2023-01-06T19:21:47.333Z,5.90
2023-01-06T19:24:49.839Z,5.90
2023-01-06T19:27:50.061Z,6.00
2023-01-06T19:30:41.039Z,5.80
2023-01-06T19:33:23.702Z,5.80
2023-01-06T19:35:52.617Z,5.70
2023-01-06T19:38:25.965Z,5.80
2023-01-06T19:40:55.354Z,5.70
2023-01-06T19:43:29.152Z,6.20
2023-01-06T19:45:57.603Z,5.70
2023-01-06T19:48:27.912Z,6.40
2023-01-06T19:51:12.427Z,6.50
2023-01-06T19:53:45.715Z,5.90
2023-01-06T19:56:18.760Z,6.00
2023-01-06T19:58:52.640Z,6.10
2023-01-06T20:01:22.058Z,6.40
2023-01-06T20:03:51.563Z,6.20
2023-01-06T20:06:19.448Z,6.20
2023-01-06T20:08:52.120Z,6.30
2023-01-06T20:11:20.773Z,6.30
2023-01-06T20:13:50.518Z,6.30
2023-01-06T20:16:18.447Z,6.40
2023-01-06T20:18:46.434Z,6.40
2023-01-06T20:21:14.367Z,6.40
2023-01-06T20:23:42.286Z,6.50
2023-01-06T20:26:10.275Z,6.40
2023-01-06T20:28:38.213Z,6.60
2023-01-06T20:31:07.575Z,6.50
2023-01-06T20:33:35.457Z,6.50
2023-01-06T20:36:03.440Z,6.50
2023-01-06T20:38:31.331Z,6.70
2023-01-06T20:40:59.263Z,6.50
2023-01-06T20:43:27.147Z,6.60
2023-01-06T20:45:55.163Z,6.60
2023-01-06T20:48:24.439Z,6.70
2023-01-06T20:50:53.348Z,6.70
2023-01-06T20:53:21.615Z,7.60
2023-01-06T20:55:55.563Z,6.80
2023-01-06T20:58:23.432Z,6.80
2023-01-06T21:00:51.493Z,6.70
2023-01-06T21:03:19.407Z,6.70
2023-01-06T21:05:48.780Z,6.70
2023-01-06T21:08:16.676Z,6.80
2023-01-06T21:10:44.580Z,6.60
2023-01-06T21:13:12.489Z,6.60
2023-01-06T21:15:40.438Z,6.60
2023-01-06T21:18:08.348Z,6.60
2023-01-06T21:20:36.260Z,6.60
2023-01-06T21:23:05.934Z,6.60
2023-01-06T21:25:34.862Z,6.60
2023-01-06T21:28:02.770Z,6.60
2023-01-06T21:30:32.010Z,6.60
2023-01-06T21:33:00.032Z,6.60
2023-01-06T21:35:27.920Z,6.50
2023-01-06T21:37:55.795Z,6.50
2023-01-06T21:40:25.069Z,6.40
2023-01-06T21:43:10.240Z,6.30
2023-01-06T21:45:38.848Z,6.30
2023-01-06T21:48:07.810Z,6.30
2023-01-06T21:50:39.052Z,6.30
2023-01-06T21:53:08.463Z,6.40
2023-01-06T21:55:38.367Z,6.40
2023-01-06T21:58:06.349Z,6.30
2023-01-06T22:00:34.232Z,6.50
2023-01-06T22:03:02.257Z,6.40
2023-01-06T22:05:30.326Z,6.40
2023-01-06T22:07:58.254Z,6.50
2023-01-06T22:10:27.515Z,6.60
2023-01-06T22:12:59.116Z,6.60
2023-01-06T22:15:28.895Z,6.70
2023-01-06T22:17:59.394Z,6.80
2023-01-06T22:20:28.527Z,6.90
2023-01-06T22:22:56.501Z,7.00
2023-01-06T22:25:24.533Z,7.10
2023-01-06T22:27:52.421Z,7.10
2023-01-06T22:30:21.865Z,7.20
2023-01-06T22:32:50.340Z,7.30
2023-01-06T22:35:19.078Z,7.40
2023-01-06T22:37:47.033Z,7.50
2023-01-06T22:40:15.808Z,7.60
2023-01-06T22:42:44.270Z,7.70
2023-01-06T22:45:13.322Z,7.80
2023-01-06T22:47:43.027Z,7.80
2023-01-06T22:50:11.428Z,7.90
2023-01-06T22:52:39.321Z,7.90
2023-01-06T22:55:08.510Z,7.90
2023-01-06T22:57:36.421Z,7.90
2023-01-06T23:00:11.948Z,7.90
2023-01-06T23:02:40.079Z,8.00
2023-01-06T23:05:10.558Z,8.00
2023-01-06T23:07:39.857Z,8.10
2023-01-06T23:10:09.376Z,8.10
2023-01-06T23:12:38.557Z,8.20
2023-01-06T23:15:07.826Z,8.30
2023-01-06T23:17:37.825Z,8.30
2023-01-06T23:20:06.713Z,8.30
2023-01-06T23:22:35.988Z,8.40
2023-01-06T23:25:04.161Z,8.40
2023-01-06T23:27:32.060Z,8.50
2023-01-06T23:30:00.160Z,8.40
2023-01-06T23:32:28.089Z,8.50
2023-01-06T23:34:56.009Z,8.60
2023-01-06T23:37:23.911Z,8.60
2023-01-06T23:39:53.343Z,8.70
2023-01-06T23:42:21.322Z,8.70
2023-01-06T23:44:49.222Z,8.70
2023-01-06T23:47:17.122Z,8.70
2023-01-06T23:49:45.389Z,8.80
2023-01-06T23:52:13.312Z,8.80
2023-01-06T23:54:41.192Z,8.80
2023-01-06T23:57:10.444Z,8.70
2023-01-06T23:59:38.346Z,8.80
